Terminal Aerodrome Forecast
Issued by NWS Binghamton, NY

Home | Current Version | Previous Version | Text Only | Print | Product List | Glossary On
Versions: 1 2 3 4 5 6 7 8 9 10 11 12 13 14 15 16 17 18 19 20
000
FTUS41 KBGM 140500
TAFAVP
TAF
KAVP 140530Z 1406/1506 24005KT P6SM BKN025
      TEMPO 1406/1410 4SM BR OVC009
     FM141300 21006KT 6SM HZ BKN050
      TEMPO 1418/1422 3SM -TSRA OVC040CB
     FM150000 18003KT 5SM BR BKN050=

USA.gov is the U.S. government's official web portal to all federal, state and local government web resources and services.